Time;durP1;ratioP1;P1;durP2;ratioP2;P2;SDS_P1;SDS_P2;PMS_P1;PMS_P2;Temp;Humidity;BMP_temperature;BMP_pressure;BME280_temperature;BME280_humidity;BME280_pressure;Samples;Min_cycle;Max_cycle;Signal;HPM_P1;HPM_P2
2023/03/15 00:00:51;;;;;;;5.93;0.80;;;3.70;99.90;;;;;;5028760;28;20527;-65
2023/03/15 00:03:16;;;;;;;8.27;1.30;;;3.70;99.90;;;;;;5039321;28;20053;-65
2023/03/15 00:05:44;;;;;;;6.70;1.00;;;3.70;99.90;;;;;;5030439;28;20071;-64
2023/03/15 00:08:11;;;;;;;6.88;1.33;;;3.70;99.90;;;;;;5026053;28;20087;-65
2023/03/15 00:10:44;;;;;;;5.00;0.85;;;3.70;99.90;;;;;;5027060;28;20040;-64
2023/03/15 00:13:11;;;;;;;8.75;1.20;;;3.70;99.90;;;;;;5026546;28;20049;-65
2023/03/15 00:15:48;;;;;;;7.03;0.77;;;3.70;99.90;;;;;;5025362;28;20041;-65
2023/03/15 00:18:15;;;;;;;4.78;1.23;;;3.60;99.90;;;;;;5030601;28;20041;-65
2023/03/15 00:20:41;;;;;;;2.10;0.35;;;3.60;99.90;;;;;;5029370;28;20319;-64
2023/03/15 00:23:08;;;;;;;2.13;0.75;;;3.70;99.90;;;;;;5032825;28;20029;-65
2023/03/15 00:25:34;;;;;;;7.90;1.02;;;3.70;99.90;;;;;;5032028;28;20029;-65
2023/03/15 00:28:00;;;;;;;4.70;0.80;;;3.60;99.90;;;;;;5026717;28;20029;-66
2023/03/15 00:30:26;;;;;;;5.38;0.80;;;3.60;99.90;;;;;;5030454;28;20033;-66
2023/03/15 00:32:55;;;;;;;11.73;1.65;;;3.60;99.90;;;;;;5030271;28;20034;-64
2023/03/15 00:35:22;;;;;;;3.53;0.70;;;3.60;99.90;;;;;;5043252;28;20033;-64
2023/03/15 00:37:53;;;;;;;5.63;1.10;;;3.60;99.90;;;;;;5035901;28;20022;-65
2023/03/15 00:40:21;;;;;;;4.05;1.30;;;3.60;99.90;;;;;;5032698;28;20833;-64
2023/03/15 00:42:49;;;;;;;4.55;1.25;;;3.60;99.90;;;;;;5032621;28;20091;-65
2023/03/15 00:45:16;;;;;;;3.00;0.60;;;3.60;99.90;;;;;;5028217;28;20105;-63
2023/03/15 00:47:42;;;;;;;5.82;1.02;;;3.60;99.90;;;;;;5031244;28;20029;-65
2023/03/15 00:50:09;;;;;;;7.95;1.30;;;3.60;99.90;;;;;;5027357;28;20040;-65
2023/03/15 00:52:38;;;;;;;7.15;1.17;;;3.60;99.90;;;;;;5030324;28;20044;-65
2023/03/15 00:55:04;;;;;;;4.43;1.02;;;3.60;99.90;;;;;;5030035;28;20037;-64
2023/03/15 00:57:33;;;;;;;7.18;1.38;;;3.60;99.90;;;;;;5027558;28;20121;-64
2023/03/15 01:00:03;;;;;;;3.90;0.98;;;3.60;99.90;;;;;;5027835;28;20031;-65
2023/03/15 01:02:30;;;;;;;5.03;1.00;;;3.60;99.90;;;;;;5028284;28;20034;-65
2023/03/15 01:04:55;;;;;;;6.10;1.80;;;3.60;99.90;;;;;;5030559;28;20033;-65
2023/03/15 01:07:21;;;;;;;4.38;0.90;;;3.60;99.90;;;;;;5028820;28;20412;-65
2023/03/15 01:09:47;;;;;;;2.10;0.82;;;3.60;99.90;;;;;;5025554;28;20512;-65
2023/03/15 01:12:13;;;;;;;3.38;0.73;;;3.60;99.90;;;;;;5034118;28;20072;-65
2023/03/15 01:14:39;;;;;;;5.70;0.75;;;3.60;99.90;;;;;;5036392;28;20041;-65
2023/03/15 01:17:05;;;;;;;5.03;1.10;;;3.60;99.90;;;;;;5034878;28;20029;-63
2023/03/15 01:19:30;;;;;;;4.25;1.30;;;3.50;99.90;;;;;;5031042;28;20538;-64
2023/03/15 01:21:56;;;;;;;4.30;1.10;;;3.40;99.90;;;;;;5030571;28;20041;-64
2023/03/15 01:24:22;;;;;;;2.70;0.95;;;3.50;99.90;;;;;;5028602;28;20065;-64
2023/03/15 01:26:49;;;;;;;3.25;1.02;;;3.40;99.90;;;;;;5030095;28;20652;-64
2023/03/15 01:29:16;;;;;;;6.10;1.00;;;3.40;99.90;;;;;;5023943;28;20471;-64
2023/03/15 01:31:42;;;;;;;1.90;0.95;;;3.40;99.90;;;;;;5026765;28;20080;-64
2023/03/15 01:34:09;;;;;;;5.88;1.00;;;3.40;99.90;;;;;;5029467;28;20313;-64
2023/03/15 01:36:34;;;;;;;5.75;1.15;;;3.30;99.90;;;;;;5029998;28;20044;-64
2023/03/15 01:39:00;;;;;;;7.00;1.20;;;3.40;99.90;;;;;;5026416;28;20041;-64
2023/03/15 01:41:33;;;;;;;4.22;0.80;;;3.30;99.90;;;;;;5026758;28;20030;-64
2023/03/15 01:43:59;;;;;;;4.57;1.20;;;3.30;99.90;;;;;;5025286;28;20032;-64
2023/03/15 01:46:26;;;;;;;2.67;0.80;;;3.30;99.90;;;;;;5030343;28;20037;-64
2023/03/15 01:49:05;;;;;;;4.50;0.80;;;3.20;99.90;;;;;;5032778;28;20033;-63
2023/03/15 01:52:08;;;;;;;4.32;0.85;;;3.20;99.90;;;;;;5033636;28;20120;-64
2023/03/15 01:54:53;;;;;;;5.45;1.30;;;3.20;99.90;;;;;;5029661;28;20426;-64
2023/03/15 01:57:22;;;;;;;3.20;0.85;;;3.20;99.90;;;;;;5023282;28;20072;-64
2023/03/15 02:00:11;;;;;;;1.45;0.93;;;3.20;99.90;;;;;;5025202;28;20033;-64
2023/03/15 02:03:03;;;;;;;6.07;1.02;;;3.10;99.90;;;;;;5034563;28;20392;-64
2023/03/15 02:05:34;;;;;;;4.05;1.10;;;3.20;99.90;;;;;;5030741;28;20839;-63
2023/03/15 02:08:05;;;;;;;5.97;0.80;;;3.10;99.90;;;;;;5031951;28;20556;-63
2023/03/15 02:10:39;;;;;;;6.63;1.30;;;3.10;99.90;;;;;;5029506;28;20037;-64
2023/03/15 02:13:06;;;;;;;4.25;1.20;;;3.10;99.90;;;;;;5027027;28;20040;-64
2023/03/15 02:15:32;;;;;;;7.22;1.52;;;3.10;99.90;;;;;;5027013;28;20033;-63
2023/03/15 02:18:00;;;;;;;4.80;0.80;;;3.20;99.90;;;;;;5028902;28;20033;-64
2023/03/15 02:20:49;;;;;;;2.92;1.00;;;3.10;99.90;;;;;;5025847;28;20037;-64
2023/03/15 02:23:19;;;;;;;4.93;1.30;;;3.10;99.90;;;;;;5030349;28;20030;-63
2023/03/15 02:26:13;;;;;;;5.40;1.38;;;3.10;99.90;;;;;;5025626;28;20040;-64
2023/03/15 02:28:39;;;;;;;6.18;1.20;;;3.10;99.90;;;;;;5030578;28;20066;-63
2023/03/15 02:31:06;;;;;;;3.55;1.63;;;3.10;99.90;;;;;;5029524;28;20106;-64
2023/03/15 02:33:54;;;;;;;2.17;0.77;;;3.00;99.90;;;;;;5020235;28;20036;-63
2023/03/15 02:36:22;;;;;;;6.38;0.90;;;3.00;99.90;;;;;;5024856;28;20787;-63
2023/03/15 02:38:49;;;;;;;8.90;2.03;;;3.10;99.90;;;;;;5027278;28;20033;-64
2023/03/15 02:41:19;;;;;;;6.32;1.65;;;3.10;99.90;;;;;;5028454;28;20100;-64
2023/03/15 02:43:48;;;;;;;6.53;1.45;;;3.00;99.90;;;;;;5035916;28;20026;-62
2023/03/15 02:46:15;;;;;;;6.32;1.30;;;3.00;99.90;;;;;;5029872;28;20036;-64
2023/03/15 02:48:41;;;;;;;4.07;1.00;;;3.00;99.90;;;;;;5025930;28;20807;-64
2023/03/15 02:51:18;;;;;;;6.90;1.48;;;2.90;99.90;;;;;;5035196;28;20100;-64
2023/03/15 02:53:44;;;;;;;6.60;1.10;;;2.90;99.90;;;;;;5037955;28;20047;-64
2023/03/15 02:56:09;;;;;;;3.58;0.85;;;2.90;99.90;;;;;;5036298;28;20037;-64
2023/03/15 02:58:35;;;;;;;5.15;1.10;;;2.90;99.90;;;;;;5030919;28;20049;-64
2023/03/15 03:01:01;;;;;;;4.45;2.55;;;2.90;99.90;;;;;;5029410;28;20034;-64
2023/03/15 03:03:27;;;;;;;3.75;1.17;;;2.90;99.90;;;;;;5030282;28;20111;-63
2023/03/15 03:05:52;;;;;;;2.80;0.90;;;2.90;99.90;;;;;;5032269;28;20030;-63
2023/03/15 03:08:18;;;;;;;5.63;1.08;;;2.90;99.90;;;;;;5024904;28;20033;-64
2023/03/15 03:10:44;;;;;;;3.53;1.23;;;2.90;99.90;;;;;;5023010;28;20108;-64
2023/03/15 03:13:10;;;;;;;6.18;1.58;;;2.90;99.90;;;;;;5038175;28;20033;-64
2023/03/15 03:15:38;;;;;;;6.68;1.10;;;2.90;99.90;;;;;;5023309;28;20415;-64
2023/03/15 03:18:04;;;;;;;7.15;1.15;;;2.90;99.90;;;;;;5022920;28;20033;-63
2023/03/15 03:20:30;;;;;;;2.60;0.90;;;2.80;99.90;;;;;;5028993;28;20122;-63
2023/03/15 03:22:55;;;;;;;4.80;0.85;;;2.80;99.90;;;;;;5026394;28;20038;-63
2023/03/15 03:25:25;;;;;;;4.72;1.35;;;2.80;99.90;;;;;;5027785;28;20057;-63
2023/03/15 03:27:55;;;;;;;4.78;0.98;;;2.80;99.90;;;;;;5034122;28;20029;-63
2023/03/15 03:30:23;;;;;;;3.17;0.90;;;2.70;99.90;;;;;;5032150;28;20037;-64
2023/03/15 03:32:50;;;;;;;7.57;1.23;;;2.70;99.90;;;;;;5029351;28;20626;-63
2023/03/15 03:35:16;;;;;;;4.63;0.77;;;2.80;99.90;;;;;;5024992;28;20037;-64
2023/03/15 03:37:42;;;;;;;5.65;0.93;;;2.70;99.90;;;;;;5025626;28;20456;-63
2023/03/15 03:40:13;;;;;;;1.63;0.63;;;2.70;99.90;;;;;;5025223;28;20087;-64
2023/03/15 03:42:39;;;;;;;4.07;1.17;;;2.70;99.90;;;;;;5034063;28;20032;-63
2023/03/15 03:45:06;;;;;;;4.25;1.13;;;2.70;99.90;;;;;;5029812;28;20128;-64
2023/03/15 03:47:36;;;;;;;2.95;1.00;;;2.70;99.90;;;;;;5035594;28;20033;-63
2023/03/15 03:50:02;;;;;;;5.63;0.95;;;2.70;99.90;;;;;;5029945;28;20103;-63
2023/03/15 03:52:28;;;;;;;8.43;1.23;;;2.70;99.90;;;;;;5028813;28;20705;-64
2023/03/15 03:55:02;;;;;;;3.85;1.35;;;2.70;99.90;;;;;;5024352;28;20061;-64
2023/03/15 03:57:28;;;;;;;2.33;1.00;;;2.70;99.90;;;;;;5019050;28;20567;-64
2023/03/15 03:59:54;;;;;;;3.92;0.70;;;2.70;99.90;;;;;;5027643;28;20048;-64
2023/03/15 04:02:20;;;;;;;5.88;1.23;;;2.70;99.90;;;;;;5029185;28;20033;-63
2023/03/15 04:04:55;;;;;;;6.13;1.60;;;2.70;99.90;;;;;;5032850;28;20064;-63
2023/03/15 04:07:21;;;;;;;8.30;1.13;;;2.70;99.90;;;;;;5030792;28;20871;-63
2023/03/15 04:09:47;;;;;;;6.72;1.27;;;2.70;99.90;;;;;;5026872;28;20033;-64
2023/03/15 04:12:13;;;;;;;4.28;1.23;;;2.70;99.90;;;;;;5026890;28;20032;-63
2023/03/15 04:14:41;;;;;;;6.88;1.40;;;2.70;99.90;;;;;;5017704;28;20840;-64
2023/03/15 04:17:09;;;;;;;7.97;1.20;;;2.70;99.90;;;;;;5025536;28;20034;-63
2023/03/15 04:19:35;;;;;;;1.77;0.90;;;2.70;99.90;;;;;;5026664;28;20029;-63
2023/03/15 04:22:05;;;;;;;3.80;0.73;;;2.60;99.90;;;;;;5024934;28;20029;-64
2023/03/15 04:24:57;;;;;;;2.53;1.00;;;2.60;99.90;;;;;;5026505;28;20112;-64
2023/03/15 04:28:01;;;;;;;7.22;1.02;;;2.60;99.90;;;;;;5004122;28;20070;-63
2023/03/15 04:31:03;;;;;;;7.70;1.17;;;2.50;99.90;;;;;;5014591;28;20033;-64
2023/03/15 04:33:57;;;;;;;8.32;2.83;;;2.50;99.90;;;;;;5002542;28;20042;-64
2023/03/15 04:36:39;;;;;;;5.88;1.17;;;2.50;99.90;;;;;;5032729;28;20751;-63
2023/03/15 04:39:34;;;;;;;10.48;1.20;;;2.50;99.90;;;;;;4987991;28;20070;-65
2023/03/15 04:42:29;;;;;;;6.25;1.75;;;2.50;99.90;;;;;;5023211;28;20033;-65
2023/03/15 04:44:57;;;;;;;3.63;0.90;;;2.40;99.90;;;;;;5028457;28;20076;-65
2023/03/15 04:47:41;;;;;;;4.60;1.40;;;2.40;99.90;;;;;;5041884;28;20128;-64
2023/03/15 04:50:26;;;;;;;6.30;1.17;;;2.40;99.90;;;;;;5041298;28;20112;-63
2023/03/15 04:53:14;;;;;;;5.60;1.25;;;2.40;99.90;;;;;;5033847;28;20121;-64
2023/03/15 04:55:43;;;;;;;6.47;1.23;;;2.40;99.90;;;;;;5032860;28;20080;-64
2023/03/15 04:58:33;;;;;;;2.75;0.68;;;2.40;99.90;;;;;;5031871;28;20029;-64
2023/03/15 05:01:12;;;;;;;2.70;0.80;;;2.30;99.90;;;;;;5040070;28;20037;-64
2023/03/15 05:04:10;;;;;;;5.53;1.30;;;2.30;99.90;;;;;;5017385;28;20037;-63
2023/03/15 05:06:55;;;;;;;9.15;1.80;;;2.40;99.90;;;;;;5035854;28;20055;-64
2023/03/15 05:09:39;;;;;;;7.50;1.30;;;2.30;99.90;;;;;;5036113;28;20047;-63
2023/03/15 05:12:23;;;;;;;5.38;1.10;;;2.30;99.90;;;;;;5033045;28;20155;-63
2023/03/15 05:15:01;;;;;;;6.75;1.42;;;2.40;99.90;;;;;;5029314;28;20041;-63
2023/03/15 05:17:56;;;;;;;3.72;1.05;;;2.40;99.90;;;;;;4988728;28;20042;-61
2023/03/15 05:20:48;;;;;;;9.02;1.23;;;2.30;99.90;;;;;;5028355;28;20041;-63
2023/03/15 05:23:14;;;;;;;6.53;1.15;;;2.30;99.90;;;;;;5031180;28;20046;-64
2023/03/15 05:25:54;;;;;;;5.47;1.30;;;2.40;99.90;;;;;;5028195;28;20060;-63
2023/03/15 05:28:38;;;;;;;3.95;1.00;;;2.40;99.90;;;;;;5031026;28;20119;-64
2023/03/15 05:31:27;;;;;;;3.92;0.85;;;2.50;99.90;;;;;;5023928;28;20033;-63
2023/03/15 05:34:07;;;;;;;7.18;1.25;;;2.60;99.90;;;;;;5034521;28;20454;-63
2023/03/15 05:36:55;;;;;;;3.67;0.80;;;2.70;99.90;;;;;;5030725;28;20061;-64
2023/03/15 05:39:51;;;;;;;2.90;1.02;;;2.80;99.90;;;;;;5029001;28;20420;-64
2023/03/15 05:42:42;;;;;;;5.25;1.50;;;3.00;99.90;;;;;;5030250;28;20041;-63
2023/03/15 05:45:31;;;;;;;5.55;1.10;;;3.10;99.90;;;;;;5012855;28;20045;-64
2023/03/15 05:48:20;;;;;;;7.00;4.10;;;3.20;99.90;;;;;;5036596;28;20042;-64
2023/03/15 05:51:08;;;;;;;8.60;2.90;;;3.30;99.90;;;;;;5031597;28;20718;-63
2023/03/15 05:53:53;;;;;;;7.95;1.48;;;3.40;99.90;;;;;;5031510;28;20122;-64
2023/03/15 05:56:18;;;;;;;7.10;1.10;;;3.40;99.90;;;;;;5033298;28;20970;-64
2023/03/15 05:58:47;;;;;;;2.13;1.00;;;3.50;99.90;;;;;;5033095;28;20116;-64
2023/03/15 06:01:39;;;;;;;5.25;1.08;;;3.50;99.90;;;;;;5014670;28;20037;-64
2023/03/15 06:04:15;;;;;;;4.35;1.30;;;3.60;99.90;;;;;;5023760;28;20037;-64
2023/03/15 06:06:41;;;;;;;5.00;1.25;;;3.60;99.90;;;;;;5024970;28;20033;-64
2023/03/15 06:09:09;;;;;;;5.90;1.08;;;3.70;99.90;;;;;;5027573;28;20046;-64
2023/03/15 06:11:35;;;;;;;5.60;1.13;;;3.70;99.90;;;;;;5028596;28;20410;-64
2023/03/15 06:14:01;;;;;;;2.50;1.10;;;3.80;99.90;;;;;;5026404;28;20136;-64
2023/03/15 06:16:39;;;;;;;5.25;1.80;;;3.80;99.90;;;;;;5023792;28;20867;-64
2023/03/15 06:19:06;;;;;;;3.10;1.10;;;3.80;99.90;;;;;;5025659;28;20033;-64
2023/03/15 06:21:32;;;;;;;6.35;1.33;;;3.90;99.90;;;;;;5030639;28;20044;-64
2023/03/15 06:23:59;;;;;;;8.30;1.65;;;4.00;99.90;;;;;;5031432;28;20083;-64
2023/03/15 06:26:25;;;;;;;4.97;1.20;;;4.00;99.90;;;;;;5026474;28;20511;-64
2023/03/15 06:28:56;;;;;;;6.07;1.27;;;4.00;99.90;;;;;;5024925;28;20871;-64
2023/03/15 06:31:22;;;;;;;8.38;1.10;;;4.00;99.90;;;;;;5028634;28;20030;-64
2023/03/15 06:33:55;;;;;;;3.42;1.27;;;4.20;99.90;;;;;;5026815;28;20508;-64
2023/03/15 06:36:21;;;;;;;3.25;0.93;;;4.30;99.90;;;;;;5025742;28;20057;-63
2023/03/15 06:38:46;;;;;;;4.28;0.85;;;4.40;99.90;;;;;;5026272;28;20114;-64
2023/03/15 06:41:14;;;;;;;5.32;1.00;;;4.50;99.50;;;;;;5027279;28;20052;-65
2023/03/15 06:43:41;;;;;;;10.00;1.23;;;4.40;99.40;;;;;;5028064;28;20060;-65
2023/03/15 06:46:07;;;;;;;8.93;1.17;;;4.50;99.20;;;;;;5024117;28;20120;-65
2023/03/15 06:48:34;;;;;;;7.22;1.40;;;4.40;99.60;;;;;;5030425;28;20112;-64
2023/03/15 06:51:00;;;;;;;9.45;1.88;;;4.50;99.00;;;;;;5024967;28;20033;-65
2023/03/15 06:53:25;;;;;;;7.80;1.90;;;4.60;99.20;;;;;;5030098;28;20033;-65
2023/03/15 06:55:51;;;;;;;6.88;1.63;;;4.60;98.90;;;;;;5024337;28;20896;-65
2023/03/15 06:58:17;;;;;;;5.78;1.90;;;4.70;99.20;;;;;;5030320;28;20033;-65
2023/03/15 07:00:43;;;;;;;5.30;1.10;;;4.70;99.80;;;;;;5019210;28;20029;-65
2023/03/15 07:03:09;;;;;;;5.82;1.55;;;4.90;99.90;;;;;;5027223;28;20056;-65
2023/03/15 07:05:36;;;;;;;10.88;1.70;;;5.10;99.90;;;;;;5033957;28;20033;-64
2023/03/15 07:08:02;;;;;;;4.72;1.35;;;5.30;99.90;;;;;;5030899;28;20471;-65
2023/03/15 07:10:28;;;;;;;4.75;1.40;;;5.50;99.40;;;;;;5036261;28;20910;-65
2023/03/15 07:12:53;;;;;;;4.82;1.40;;;5.60;99.00;;;;;;5034022;28;20064;-65
2023/03/15 07:15:19;;;;;;;3.30;1.42;;;5.60;98.40;;;;;;5028395;28;20127;-64
2023/03/15 07:17:45;;;;;;;4.35;1.35;;;5.60;97.60;;;;;;5025240;28;20116;-65
2023/03/15 07:20:11;;;;;;;9.10;1.30;;;5.40;97.40;;;;;;5028660;28;20029;-65
2023/03/15 07:22:37;;;;;;;6.45;1.35;;;5.40;98.10;;;;;;5032543;28;20029;-66
2023/03/15 07:25:06;;;;;;;2.97;1.20;;;5.30;98.60;;;;;;5026014;28;20057;-65
2023/03/15 07:27:32;;;;;;;7.30;1.70;;;5.30;99.00;;;;;;5027844;28;20030;-65
2023/03/15 07:29:58;;;;;;;4.30;1.10;;;5.30;98.40;;;;;;5027430;28;20044;-65
2023/03/15 07:32:23;;;;;;;5.85;1.42;;;5.30;98.90;;;;;;5026636;28;20044;-66
2023/03/15 07:34:49;;;;;;;4.72;1.23;;;5.30;99.00;;;;;;5028404;28;20030;-65
2023/03/15 07:37:16;;;;;;;8.15;1.95;;;5.50;98.80;;;;;;5027023;28;20517;-66
2023/03/15 07:39:42;;;;;;;7.30;1.73;;;5.50;98.50;;;;;;5031474;28;20119;-64
2023/03/15 07:42:08;;;;;;;9.98;2.53;;;5.50;98.70;;;;;;5027753;28;20171;-65
2023/03/15 07:44:39;;;;;;;10.10;2.58;;;5.50;99.00;;;;;;5035622;28;20067;-65
2023/03/15 07:47:05;;;;;;;10.07;1.50;;;5.60;99.30;;;;;;5030964;28;20029;-65
2023/03/15 07:49:33;;;;;;;6.32;1.73;;;5.70;99.00;;;;;;5027662;28;20480;-65
2023/03/15 07:51:59;;;;;;;9.68;1.95;;;5.80;98.90;;;;;;5027438;28;20033;-65
2023/03/15 07:54:25;;;;;;;3.55;1.58;;;5.90;98.70;;;;;;5036930;28;20036;-64
2023/03/15 07:56:50;;;;;;;5.70;1.63;;;5.90;98.30;;;;;;5032262;28;20154;-66
2023/03/15 07:59:16;;;;;;;10.60;1.98;;;6.00;97.90;;;;;;5030498;28;20044;-65
2023/03/15 08:01:42;;;;;;;6.78;1.38;;;6.00;97.80;;;;;;5028855;28;20029;-65
2023/03/15 08:04:07;;;;;;;7.93;1.52;;;6.00;97.80;;;;;;5026030;28;20464;-64
2023/03/15 08:06:33;;;;;;;8.30;1.70;;;6.00;97.40;;;;;;5026125;28;20036;-65
2023/03/15 08:09:00;;;;;;;5.07;1.30;;;6.00;97.20;;;;;;5029522;28;20040;-65
2023/03/15 08:11:26;;;;;;;9.02;1.75;;;6.10;97.80;;;;;;5031270;28;20028;-64
2023/03/15 08:13:51;;;;;;;6.28;1.80;;;6.10;97.50;;;;;;5027638;28;20493;-64
2023/03/15 08:16:17;;;;;;;3.92;1.45;;;6.10;97.10;;;;;;5025078;28;20033;-65
2023/03/15 08:18:43;;;;;;;7.50;1.77;;;6.10;96.60;;;;;;5024846;28;20060;-65
2023/03/15 08:21:09;;;;;;;9.35;1.52;;;6.10;96.90;;;;;;5028469;28;20036;-65
2023/03/15 08:23:35;;;;;;;7.30;1.98;;;6.10;97.00;;;;;;5024363;28;20025;-65
2023/03/15 08:26:00;;;;;;;10.15;2.22;;;6.20;97.80;;;;;;5031675;28;20078;-65
2023/03/15 08:28:26;;;;;;;10.90;2.53;;;6.30;97.40;;;;;;5024125;28;20565;-65
2023/03/15 08:30:52;;;;;;;8.95;2.42;;;6.40;97.40;;;;;;5021383;28;20060;-66
2023/03/15 08:33:17;;;;;;;7.20;1.90;;;6.50;97.40;;;;;;5024892;28;20056;-65
2023/03/15 08:35:43;;;;;;;7.45;2.10;;;6.70;97.20;;;;;;5023331;28;20246;-66
2023/03/15 08:38:09;;;;;;;9.88;3.03;;;6.80;96.70;;;;;;5025441;28;20992;-65
2023/03/15 08:40:35;;;;;;;7.72;1.77;;;6.90;96.10;;;;;;5027846;28;20033;-65
2023/03/15 08:43:01;;;;;;;9.82;2.78;;;6.90;96.30;;;;;;5024600;28;20045;-66
2023/03/15 08:45:27;;;;;;;6.10;2.15;;;7.00;96.40;;;;;;5029832;28;20039;-66
2023/03/15 08:47:56;;;;;;;8.57;2.67;;;7.00;96.30;;;;;;5033980;28;20048;-65
2023/03/15 08:50:23;;;;;;;5.68;2.28;;;7.10;95.60;;;;;;5026251;28;20029;-66
2023/03/15 08:52:49;;;;;;;6.45;2.45;;;7.10;95.30;;;;;;5025510;28;20033;-66
2023/03/15 08:55:15;;;;;;;7.55;2.30;;;7.10;94.50;;;;;;5027302;28;20040;-66
2023/03/15 08:57:41;;;;;;;8.02;2.10;;;7.20;95.20;;;;;;5025302;28;20904;-65
2023/03/15 09:00:08;;;;;;;8.50;2.33;;;7.30;94.60;;;;;;5024714;28;20025;-66
2023/03/15 09:02:35;;;;;;;5.88;2.30;;;7.40;94.40;;;;;;5023624;28;20910;-65
2023/03/15 09:05:02;;;;;;;9.00;2.05;;;7.60;94.50;;;;;;5029343;28;20666;-65
2023/03/15 09:07:28;;;;;;;7.20;2.00;;;8.10;94.70;;;;;;5037263;28;20025;-65
2023/03/15 09:09:53;;;;;;;7.05;1.73;;;8.90;92.70;;;;;;5029733;28;20171;-66
2023/03/15 09:12:20;;;;;;;4.05;1.80;;;9.60;90.50;;;;;;5029044;28;20382;-67
2023/03/15 09:14:46;;;;;;;5.28;1.70;;;10.40;85.40;;;;;;5023095;28;20029;-65
2023/03/15 09:17:12;;;;;;;8.15;2.15;;;10.80;80.40;;;;;;5024276;28;20037;-66
2023/03/15 09:19:38;;;;;;;9.60;3.55;;;10.80;79.70;;;;;;5035597;28;20630;-66
2023/03/15 09:22:05;;;;;;;8.93;2.55;;;10.60;78.90;;;;;;5019469;28;20112;-69
2023/03/15 09:24:30;;;;;;;6.20;1.55;;;10.30;76.70;;;;;;5025820;28;20763;-66
2023/03/15 09:26:57;;;;;;;11.15;2.13;;;10.00;80.40;;;;;;5020176;28;20033;-63
2023/03/15 09:29:22;;;;;;;7.50;2.42;;;9.70;81.30;;;;;;5026810;28;20052;-66
2023/03/15 09:31:48;;;;;;;5.72;1.60;;;9.50;81.90;;;;;;5023965;28;20033;-67
2023/03/15 09:34:14;;;;;;;6.40;2.22;;;9.60;81.60;;;;;;5027196;28;20090;-66
2023/03/15 09:36:40;;;;;;;7.70;1.75;;;9.80;83.20;;;;;;5022139;28;20033;-67
2023/03/15 09:39:07;;;;;;;8.32;1.92;;;9.90;79.90;;;;;;5027215;28;20048;-67
2023/03/15 09:41:44;;;;;;;7.50;2.92;;;9.90;80.60;;;;;;5027199;28;20044;-67
2023/03/15 09:44:37;;;;;;;7.35;2.40;;;9.70;78.20;;;;;;5029739;28;20028;-66
2023/03/15 09:47:27;;;;;;;5.97;2.25;;;9.40;78.70;;;;;;5018586;28;20763;-66
2023/03/15 09:50:01;;;;;;;3.70;1.63;;;8.80;78.30;;;;;;5022857;28;20154;-66
2023/03/15 09:52:49;;;;;;;4.50;1.95;;;8.50;82.40;;;;;;5025245;28;20033;-66
2023/03/15 09:55:27;;;;;;;4.82;1.65;;;8.50;87.30;;;;;;5026564;28;20607;-66
2023/03/15 09:58:25;;;;;;;8.90;2.00;;;8.70;87.40;;;;;;5025918;28;20030;-66
2023/03/15 10:01:02;;;;;;;7.97;1.95;;;9.00;86.50;;;;;;5017965;28;20041;-66
2023/03/15 10:03:35;;;;;;;15.65;10.18;;;10.00;83.20;;;;;;5023228;28;20053;-66
2023/03/15 10:06:11;;;;;;;10.35;3.72;;;10.90;80.80;;;;;;5027386;28;20051;-66
2023/03/15 10:08:37;;;;;;;7.97;3.87;;;11.40;75.50;;;;;;5034886;28;20029;-66
2023/03/15 10:11:28;;;;;;;8.32;1.88;;;11.40;72.90;;;;;;5034180;28;20372;-66
2023/03/15 10:14:33;;;;;;;5.20;2.45;;;11.00;71.30;;;;;;5023759;28;20036;-66
2023/03/15 10:17:02;;;;;;;11.70;5.20;;;10.80;74.40;;;;;;5009761;28;20083;-66
2023/03/15 10:19:44;;;;;;;10.88;3.83;;;11.40;73.70;;;;;;5027801;28;20090;-66
2023/03/15 10:22:12;;;;;;;5.88;2.65;;;12.40;70.20;;;;;;5023433;28;20055;-67
2023/03/15 10:24:57;;;;;;;17.50;5.78;;;13.40;70.00;;;;;;5028298;28;20079;-66
2023/03/15 10:28:00;;;;;;;9.98;4.35;;;14.20;62.40;;;;;;5023552;28;20028;-66
2023/03/15 10:30:28;;;;;;;7.07;2.08;;;13.60;61.40;;;;;;5022936;28;20041;-66
2023/03/15 10:33:17;;;;;;;4.88;2.38;;;13.30;66.40;;;;;;5022773;28;20037;-66
2023/03/15 10:35:43;;;;;;;12.30;3.58;;;13.90;62.20;;;;;;5024003;28;20037;-67
2023/03/15 10:38:20;;;;;;;7.35;1.40;;;14.00;60.80;;;;;;5026715;28;20029;-66
2023/03/15 10:40:48;;;;;;;7.15;2.03;;;13.40;60.40;;;;;;5023780;28;20060;-67
2023/03/15 10:43:19;;;;;;;7.80;1.90;;;12.80;60.70;;;;;;5022539;28;20022;-66
2023/03/15 10:46:02;;;;;;;3.15;1.40;;;13.00;61.30;;;;;;5030411;28;20912;-66
2023/03/15 10:48:30;;;;;;;6.75;2.10;;;14.00;60.80;;;;;;5023655;28;20045;-66
2023/03/15 10:50:59;;;;;;;5.07;2.40;;;14.70;56.70;;;;;;5025689;28;20029;-66
2023/03/15 10:53:25;;;;;;;4.18;2.47;;;14.20;58.50;;;;;;5023335;28;20931;-67
2023/03/15 10:56:05;;;;;;;4.95;2.58;;;13.30;57.30;;;;;;5020695;28;20029;-64
2023/03/15 10:58:47;;;;;;;7.28;3.00;;;12.50;61.60;;;;;;5022588;28;20029;-66
2023/03/15 11:01:34;;;;;;;2.50;1.10;;;11.60;62.80;;;;;;5022925;28;20044;-67
2023/03/15 11:04:12;;;;;;;10.13;2.40;;;11.40;62.80;;;;;;5021789;28;20683;-65
2023/03/15 11:06:43;;;;;;;5.72;2.30;;;11.70;65.00;;;;;;5026764;28;20506;-65
2023/03/15 11:09:15;;;;;;;15.80;6.82;;;12.50;61.00;;;;;;5022694;28;20030;-66
2023/03/15 11:11:52;;;;;;;26.10;11.77;;;12.80;60.60;;;;;;5023080;28;20052;-65
2023/03/15 11:14:18;;;;;;;14.88;6.88;;;12.90;60.10;;;;;;5024826;28;20076;-66
2023/03/15 11:16:52;;;;;;;5.60;1.55;;;13.40;60.00;;;;;;5026343;28;20052;-65
2023/03/15 11:19:21;;;;;;;2.53;1.20;;;14.70;57.80;;;;;;5024794;28;20116;-65
2023/03/15 11:21:49;;;;;;;4.38;1.60;;;14.90;54.60;;;;;;5027983;28;20037;-63
2023/03/15 11:24:26;;;;;;;6.85;1.73;;;14.40;56.70;;;;;;5027546;28;20063;-67
2023/03/15 11:26:54;;;;;;;3.97;2.00;;;13.20;56.90;;;;;;5023714;28;20926;-65
2023/03/15 11:29:26;;;;;;;9.55;2.97;;;12.30;60.40;;;;;;5025875;28;20075;-67
2023/03/15 11:31:53;;;;;;;3.03;1.25;;;11.80;62.40;;;;;;5020392;28;20026;-66
2023/03/15 11:34:42;;;;;;;5.25;1.30;;;11.50;64.40;;;;;;5026094;28;20497;-65
2023/03/15 11:37:19;;;;;;;7.38;1.40;;;11.30;65.30;;;;;;5023520;28;20027;-66
2023/03/15 11:40:10;;;;;;;5.35;2.13;;;11.10;64.60;;;;;;5026246;28;20094;-67
2023/03/15 11:43:09;;;;;;;4.75;1.77;;;10.80;66.10;;;;;;5021965;28;20928;-66
2023/03/15 11:45:50;;;;;;;4.55;1.83;;;10.60;66.20;;;;;;5024841;28;20037;-65
2023/03/15 11:48:47;;;;;;;4.50;2.75;;;10.30;68.70;;;;;;5030698;28;20899;-67
2023/03/15 11:51:13;;;;;;;6.95;1.48;;;10.30;68.30;;;;;;5028925;28;20035;-66
2023/03/15 11:54:03;;;;;;;3.30;1.05;;;10.40;71.70;;;;;;5026547;28;20362;-65
2023/03/15 11:57:00;;;;;;;4.03;1.23;;;10.40;68.30;;;;;;5026625;28;20612;-65
2023/03/15 11:59:39;;;;;;;4.07;1.20;;;10.50;69.60;;;;;;5028356;28;20040;-65
2023/03/15 12:02:13;;;;;;;2.92;1.08;;;10.60;69.50;;;;;;5023371;28;20048;-66
2023/03/15 12:04:46;;;;;;;4.55;1.27;;;10.80;68.50;;;;;;5023256;28;20038;-65
2023/03/15 12:07:18;;;;;;;5.93;0.90;;;10.80;68.10;;;;;;5028811;28;20124;-65
2023/03/15 12:09:55;;;;;;;8.85;1.42;;;10.70;63.70;;;;;;5030421;28;20040;-66
2023/03/15 12:12:23;;;;;;;20.58;8.75;;;10.70;66.50;;;;;;5032519;28;20086;-65
2023/03/15 12:15:17;;;;;;;6.65;1.92;;;10.90;66.70;;;;;;5025702;28;20120;-65
2023/03/15 12:17:56;;;;;;;4.25;2.35;;;11.00;65.60;;;;;;5029274;28;20045;-65
2023/03/15 12:20:41;;;;;;;5.43;1.45;;;11.10;66.30;;;;;;5027396;28;20083;-66
2023/03/15 12:23:16;;;;;;;7.93;2.22;;;11.10;65.70;;;;;;5024658;28;20025;-66
2023/03/15 12:25:48;;;;;;;3.95;2.10;;;11.30;65.20;;;;;;5027634;28;20056;-66
2023/03/15 12:28:36;;;;;;;6.53;2.67;;;11.20;63.90;;;;;;5027328;28;20025;-64
2023/03/15 12:31:05;;;;;;;8.48;3.08;;;11.10;62.40;;;;;;5027998;28;20032;-62
2023/03/15 12:33:42;;;;;;;4.03;1.48;;;11.20;64.10;;;;;;5023768;28;20449;-66
2023/03/15 12:36:15;;;;;;;5.63;1.40;;;11.10;63.30;;;;;;5026811;28;20485;-66
2023/03/15 12:38:54;;;;;;;5.43;1.60;;;11.10;61.10;;;;;;5019199;28;20033;-66
2023/03/15 12:41:35;;;;;;;7.35;3.30;;;11.10;61.80;;;;;;5021901;28;20474;-66
2023/03/15 12:44:32;;;;;;;7.32;2.30;;;11.10;61.50;;;;;;5022987;28;20108;-66
2023/03/15 12:47:00;;;;;;;10.95;5.82;;;11.10;60.60;;;;;;5026706;28;20436;-66
2023/03/15 12:49:26;;;;;;;5.32;1.20;;;11.00;61.80;;;;;;5022157;28;20041;-66
2023/03/15 12:52:10;;;;;;;4.97;1.42;;;11.00;61.30;;;;;;5023639;28;20030;-66
2023/03/15 12:54:47;;;;;;;3.97;1.17;;;10.90;60.40;;;;;;5023604;28;20037;-66
2023/03/15 12:57:22;;;;;;;6.03;2.30;;;10.80;59.20;;;;;;5020764;28;20037;-68
2023/03/15 12:59:47;;;;;;;8.02;3.03;;;10.70;58.40;;;;;;5030192;28;20030;-67
2023/03/15 13:02:35;;;;;;;4.13;1.65;;;10.60;59.80;;;;;;5025564;28;20418;-68
2023/03/15 13:05:23;;;;;;;2.58;1.10;;;10.40;61.60;;;;;;5022274;28;20047;-67
2023/03/15 13:08:07;;;;;;;2.63;0.90;;;10.20;61.40;;;;;;5026950;28;20083;-67
2023/03/15 13:11:10;;;;;;;7.38;2.20;;;10.00;61.00;;;;;;5027505;28;20029;-67
2023/03/15 13:13:39;;;;;;;6.60;1.10;;;10.00;63.00;;;;;;5035322;28;20075;-65
2023/03/15 13:16:04;;;;;;;6.47;2.00;;;9.90;61.50;;;;;;5033551;28;20389;-65
2023/03/15 13:18:35;;;;;;;15.55;4.55;;;9.80;62.50;;;;;;5031595;28;20033;-66
2023/03/15 13:21:19;;;;;;;18.15;4.82;;;9.80;62.10;;;;;;5027169;28;20040;-66